Stations météo

Publicité
Uccle, Belgique (6447): Température de l'air & dewpoint: 18.01.2021 06:00:00 - 24.01.2021 06:00:00 (CET)Uccle, Belgique (6447): Vitesse du vent & gusts: 18.01.2021 06:00:00 - 24.01.2021 06:00:00 (CET)Uccle, Belgique (6447): Direction du vent: 18.01.2021 06:00:00 - 24.01.2021 06:00:00 (CET)Uccle, Belgique (6447): reduced air pressure: 18.01.2021 06:00:00 - 24.01.2021 06:00:00 (CET)Uccle, Belgique (6447): Ensoleillement: 18.01.2021 06:00:00 - 24.01.2021 06:00:00 (CET)Uccle, Belgique (6447): Quantités de précipitations: 18.01.2021 06:00:00 - 24.01.2021 06:00:00 (CET)
Date & Time tt [°C] td [°C] ff [km/h] ff [knt] fx [km/h] fx [knt] dd ppp [hPa] sd [min] rr [mm]
24.01.2021 06:00:00 0,3 -0,4 10 5 20 11 WSW 999,1 0 0,0
24.01.2021 05:00:00 0,5 -0,1 9 5 20 11 W 998,6 0 0,0
24.01.2021 04:00:00 0,3 -0,2 11 6 26 14 W 998,1 0 0,5
24.01.2021 03:00:00 0,5 -0,2 14 8 30 16 W 997,4 0 0,2
24.01.2021 02:00:00 0,8 0,0 13 7 25 14 W 996,6 0 0,1
24.01.2021 01:00:00 1,0 0,2 14 8 27 15 W 996,1 0 0,1
24.01.2021 00:00:00 0,4 -0,1 11 6 24 13 W 995,8 0 0,7
23.01.2021 23:00:00 0,5 -0,1 10 5 21 11 W 995,2 0 0,6
23.01.2021 22:00:00 0,8 0,0 14 7 25 14 NW 994,8 0 0,6
23.01.2021 21:00:00 0,6 -0,1 14 8 34 18 NNW 994,5 0 0,9
23.01.2021 20:00:00 1,2 0,2 17 9 37 20 NW 994,1 0 0,1
23.01.2021 19:00:00 3,8 2,4 14 8 22 12 NNW 993,5 0 0,0
23.01.2021 18:00:00 4,6 1,0 11 6 19 10 N 993,3 0 0,1
23.01.2021 17:00:00 4,8 1,4 4 2 6 3 N 993,2 0 0,0
23.01.2021 16:00:00 5,0 1,2 0 0 11 6 N 993,2 0 0,0
23.01.2021 15:00:00 5,2 1,5 7 4 20 11 SSE 993,5 0 0,0
23.01.2021 14:00:00 5,0 1,6 11 6 31 17 S 994,0 0 0,0
23.01.2021 13:00:00 5,2 1,9 18 10 27 15 S 994,7 0 0,0
23.01.2021 12:00:00 4,7 1,8 14 8 28 15 S 995,0 1 0,0
23.01.2021 11:00:00 4,1 1,7 14 7 22 12 S 995,5 1 0,0
23.01.2021 10:00:00 3,8 1,8 9 5 24 13 S 996,0 20 0,0
23.01.2021 09:00:00 2,5 1,1 16 9 36 20 S 996,3 0 0,0
23.01.2021 08:00:00 2,7 1,1 16 9 31 17 S 996,2 0 0,0
23.01.2021 07:00:00 3,0 1,1 14 8 35 19 S 995,9 0 0,0
23.01.2021 06:00:00 3,4 1,5 15 8 32 18 SSW 996,2 0 0,0
23.01.2021 05:00:00 3,5 1,6 16 9 34 19 SSW 996,3 0 0,0
23.01.2021 04:00:00 4,0 1,7 17 9 34 19 SSW 996,3 0 0,0
23.01.2021 03:00:00 4,3 1,8 16 9 30 16 SSW 996,7 0 0,0
23.01.2021 02:00:00 3,7 1,6 16 9 35 19 SSW 996,6 0 0,0
23.01.2021 01:00:00 2,8 1,2 14 8 24 13 S 997,0 0 0,0
23.01.2021 00:00:00 2,8 1,1 13 7 20 11 S 997,4 0 0,0
22.01.2021 23:00:00 2,7 1,0 11 6 21 11 S 997,4 0 0,0
22.01.2021 22:00:00 2,8 0,9 11 6 19 10 S 997,5 0 0,0
22.01.2021 21:00:00 2,3 0,3 11 6 16 9 S 997,6 0 0,0
22.01.2021 20:00:00 1,8 -0,5 8 4 13 7 SSW 997,3 0 0,0
22.01.2021 19:00:00 2,3 -0,7 11 6 13 7 SW 996,9 0 0,0
22.01.2021 18:00:00 3,5 -0,6 6 4 14 8 SW 996,5 0 0,0
22.01.2021 17:00:00 5,7 -1,0 9 5 24 13 WSW 995,9 30 0,0
22.01.2021 16:00:00 6,5 0,1 14 7 24 13 WSW 995,8 58 0,0
22.01.2021 15:00:00 7,1 1,5 10 6 25 14 SW 995,6 57 0,0
22.01.2021 14:00:00 6,8 1,9 10 6 23 12 WSW 995,4 57 0,0
22.01.2021 13:00:00 6,2 2,7 11 6 24 13 WSW 995,0 54 0,0
22.01.2021 12:00:00 5,1 3,2 12 6 26 14 SW 994,7 45 0,0
22.01.2021 11:00:00 4,2 2,9 9 5 22 12 SW 994,2 1 0,0
22.01.2021 10:00:00 3,7 2,6 8 5 24 13 SW 993,5 0 0,0
22.01.2021 09:00:00 3,6 2,5 10 5 23 12 SW 992,6 0 0,0
22.01.2021 08:00:00 3,7 2,6 10 5 26 14 SW 991,6 0 0,0
22.01.2021 07:00:00 4,0 2,6 14 8 29 15 SW 991,0 0 0,0
22.01.2021 06:00:00 3,9 2,6 15 8 27 15 SW 991,0 0 0,0
22.01.2021 05:00:00 3,7 2,6 12 7 23 13 SW 990,7 0 0,0
22.01.2021 04:00:00 3,5 2,5 13 7 21 12 SW 989,8 0 0,0
22.01.2021 03:00:00 3,5 2,5 8 4 17 9 SW 989,1 0 0,0
22.01.2021 02:00:00 3,8 2,9 12 7 32 18 WNW 988,2 0 0,5
22.01.2021 01:00:00 5,0 3,8 18 10 52 28 WNW 986,2 0 2,5
22.01.2021 00:00:00 8,3 6,7 29 16 56 31 SSW 983,3 0 2,0
21.01.2021 23:00:00 8,7 6,8 27 15 65 35 SSW 983,8 0 0,8
21.01.2021 22:00:00 8,7 6,9 29 16 57 31 SSW 984,1 0 1,7
21.01.2021 21:00:00 8,5 6,9 28 15 58 31 S 984,4 0 0,6
21.01.2021 20:00:00 7,0 5,7 29 15 44 24 S 985,9 0 1,5
21.01.2021 19:00:00 6,1 4,9 14 8 27 15 SE 988,0 0 1,9
21.01.2021 18:00:00 6,5 4,4 14 8 50 27 S 990,7 0 0,5
21.01.2021 17:00:00 7,7 2,7 25 13 56 30 SSW 991,9 0 0,0
21.01.2021 16:00:00 7,8 3,0 27 15 53 29 S 992,4 0 0,0
21.01.2021 15:00:00 7,7 2,8 26 14 58 31 SSW 993,0 9 0,0
21.01.2021 14:00:00 7,4 2,7 22 12 49 27 SSW 993,4 0 0,0
21.01.2021 13:00:00 7,1 2,9 25 14 55 30 SSW 994,0 2 0,0
21.01.2021 12:00:00 6,9 2,5 30 16 59 32 SSW 994,4 0 0,0
21.01.2021 11:00:00 6,7 2,6 27 15 59 32 SSW 994,0 5 0,0
21.01.2021 10:00:00 6,0 2,6 24 13 49 26 SSW 993,5 0 0,0
21.01.2021 09:00:00 5,7 2,8 21 11 45 24 SSW 992,9 0 0,0
21.01.2021 08:00:00 5,6 2,5 21 11 45 24 SSW 992,1 0 0,0
21.01.2021 07:00:00 5,8 3,2 29 16 58 32 SW 991,1 0 0,0
21.01.2021 06:00:00 5,6 3,3 31 17 53 29 SW 989,9 0 0,4
21.01.2021 05:00:00 5,6 4,0 24 13 90 48 SW 988,7 0 2,9
21.01.2021 04:00:00 9,8 6,9 40 22 84 45 S 984,9 0 0,1
21.01.2021 03:00:00 10,6 5,2 42 23 83 45 S 985,2 0 0,1
21.01.2021 02:00:00 11,3 3,8 44 24 85 46 S 985,5 0 0,0
21.01.2021 01:00:00 10,9 4,3 40 21 71 38 S 987,2 0 0,0
21.01.2021 00:00:00 10,5 4,5 31 17 70 38 S 989,0 0 0,0
20.01.2021 23:00:00 10,8 4,4 38 20 68 37 S 990,5 0 0,0
20.01.2021 22:00:00 10,9 4,4 32 17 59 32 S 991,4 0 0,0
20.01.2021 21:00:00 10,2 5,0 27 15 51 27 S 992,4 0 0,1
20.01.2021 20:00:00 10,3 3,4 27 14 53 29 S 993,4 0 0,0
20.01.2021 19:00:00 9,6 2,6 25 14 48 26 S 994,2 0 0,0
20.01.2021 18:00:00 9,6 1,9 31 17 52 28 S 994,4 0 0,0
20.01.2021 17:00:00 9,9 1,6 29 16 50 27 S 994,4 3 0,0
20.01.2021 16:00:00 10,2 0,8 31 17 55 30 S 995,4 8 0,0
20.01.2021 15:00:00 9,8 0,5 31 17 53 28 S 996,2 0 0,0
20.01.2021 14:00:00 9,2 1,6 26 14 51 27 S 996,7 4 0,0
20.01.2021 13:00:00 8,9 0,8 25 14 63 34 S 998,3 0 0,0
20.01.2021 12:00:00 9,0 0,7 28 15 53 29 S 999,3 13 0,0
20.01.2021 11:00:00 7,8 1,1 24 13 50 27 S 999,8 0 0,0
20.01.2021 10:00:00 7,2 1,3 21 11 41 22 S 1000,6 16 0,0
20.01.2021 09:00:00 6,9 3,2 22 12 46 25 S 1000,6 0 0,0
20.01.2021 08:00:00 6,7 4,2 24 13 47 26 S 1000,8 0 0,2
20.01.2021 07:00:00 6,4 4,2 25 14 58 32 SSW 1001,4 0 0,5
20.01.2021 06:00:00 7,5 3,7 25 14 56 30 SSW 1001,7 0 0,0
20.01.2021 05:00:00 7,4 3,0 26 14 50 27 SSW 1002,1 0 0,0
20.01.2021 04:00:00 6,2 3,8 23 12 56 30 S 1002,7 0 0,4
20.01.2021 03:00:00 6,4 3,2 26 14 50 27 SSW 1003,8 0 0,1
20.01.2021 02:00:00 6,3 2,8 26 14 56 31 SSW 1004,0 0 0,0
20.01.2021 01:00:00 6,2 3,0 25 14 54 29 S 1004,6 0 0,0
20.01.2021 00:00:00 5,9 2,9 26 14 52 28 S 1005,4 0 0,0
19.01.2021 23:00:00 6,2 3,6 28 15 57 31 S 1006,5 0 0,0
19.01.2021 22:00:00 6,2 4,0 23 13 49 27 SSW 1007,2 0 0,0
19.01.2021 21:00:00 5,9 4,2 26 14 52 28 S 1007,8 0 0,0
19.01.2021 20:00:00 6,0 4,0 24 13 52 28 SSW 1008,7 0 0,0
19.01.2021 19:00:00 6,3 4,5 22 12 45 24 SSW 1008,9 0 0,0
19.01.2021 18:00:00 6,5 5,3 25 14 55 30 SSW 1009,1 0 0,0
19.01.2021 17:00:00 7,0 5,8 29 15 52 28 SW 1009,2 0 0,0
19.01.2021 16:00:00 7,5 6,1 30 16 51 28 SW 1009,0 0 0,0
19.01.2021 15:00:00 7,7 6,5 29 15 53 29 SW 1009,1 0 0,0
19.01.2021 14:00:00 7,5 6,5 27 15 46 25 SW 1009,1 0 0,1
19.01.2021 13:00:00 7,1 6,1 25 14 61 33 SW 1009,6 0 0,1
19.01.2021 12:00:00 7,3 5,9 27 15 61 33 SW 1009,5 0 0,0
19.01.2021 11:00:00 6,9 5,5 34 19 66 36 SW 1009,5 0 0,2
19.01.2021 10:00:00 5,9 4,6 29 16 64 34 SW 1009,5 0 0,7
19.01.2021 09:00:00 5,4 4,1 29 15 57 31 SSW 1009,7 0 2,3
19.01.2021 08:00:00 5,1 3,7 31 17 63 34 SSW 1010,5 0 2,9
19.01.2021 07:00:00 5,0 3,6 25 14 62 34 SSW 1011,2 0 1,1
19.01.2021 06:00:00 4,8 3,4 29 15 57 31 SSW 1011,9 0 0,1
19.01.2021 05:00:00 4,4 3,3 30 16 58 32 SSW 1013,4 0 0,6
19.01.2021 04:00:00 4,2 2,6 26 14 49 27 SSW 1014,7 0 0,0
19.01.2021 03:00:00 4,4 1,8 24 13 46 25 SSW 1016,0 0 0,0
19.01.2021 02:00:00 3,9 1,2 21 11 42 23 SSW 1017,6 0 0,0
19.01.2021 01:00:00 4,2 1,1 22 12 42 23 SSW 1018,4 0 0,0
19.01.2021 00:00:00 5,1 1,7 25 13 40 22 SSW 1019,5 0 0,0
18.01.2021 23:00:00 4,9 2,6 16 9 34 19 SSW 1019,9 0 0,0
18.01.2021 22:00:00 5,1 3,2 19 10 38 21 SSW 1020,7 0 0,0
18.01.2021 21:00:00 5,0 3,5 22 12 40 22 SW 1021,1 0 0,2
18.01.2021 20:00:00 4,9 3,9 13 7 34 18 WSW 1022,0 0 0,3
18.01.2021 19:00:00 5,0 3,5 18 10 37 20 SW 1022,0 0 0,0
18.01.2021 18:00:00 4,6 3,2 17 9 35 19 SW 1022,2 0 0,0
18.01.2021 17:00:00 4,5 3,0 16 9 35 19 SW 1022,4 0 0,0
18.01.2021 16:00:00 4,6 3,1 22 12 36 19 SW 1022,5 0 0,3
18.01.2021 15:00:00 5,4 3,0 19 11 37 20 SW 1022,7 0 0,0
18.01.2021 14:00:00 5,3 2,9 18 10 39 21 SW 1023,2 0 0,0
18.01.2021 13:00:00 5,0 2,5 14 8 33 18 SW 1024,1 8 0,0
18.01.2021 12:00:00 4,5 2,4 17 9 30 16 SW 1024,7 0 0,0
18.01.2021 11:00:00 3,8 2,1 10 5 28 15 SW 1025,1 4 0,0
18.01.2021 10:00:00 2,8 1,6 12 7 26 14 SW 1024,9 0 0,0
18.01.2021 09:00:00 2,1 1,1 13 7 22 12 SW 1024,7 0 0,0
18.01.2021 08:00:00 2,0 0,9 11 6 24 13 SW 1025,0 0 0,0
18.01.2021 07:00:00 1,9 0,9 11 6 22 12 SW 1025,0 0 0,0
18.01.2021 06:00:00 1,9 0,9 10 5 18 10 SW 1025,3 0 0,0

tt = Température de l'air
td = dewpoint
ff = Vitesse du vent
fx = gusts
dd = Direction du vent
ppp = reduced air pressure
sd = Ensoleillement
rr = Quantités de précipitations

stations d'obs. à proximité